createdAt,value
2022-08-16T00:00:22.098Z,19.25
2022-08-16T00:01:54.711Z,19.28
2022-08-16T00:03:27.767Z,19.35
2022-08-16T00:05:02.343Z,19.35
2022-08-16T00:06:36.599Z,19.30
2022-08-16T00:08:11.548Z,19.26
2022-08-16T00:10:05.763Z,19.24
2022-08-16T00:11:42.795Z,19.21
2022-08-16T00:13:14.777Z,19.16
2022-08-16T00:14:49.837Z,19.15
2022-08-16T00:17:01.221Z,19.15
2022-08-16T00:18:18.280Z,19.14
2022-08-16T00:19:56.272Z,19.11
2022-08-16T00:21:29.066Z,19.07
2022-08-16T00:23:01.250Z,19.06
2022-08-16T00:24:34.664Z,19.07
2022-08-16T00:26:35.846Z,19.05
2022-08-16T00:27:58.963Z,19.04
2022-08-16T00:29:31.735Z,19.03
2022-08-16T00:31:04.981Z,19.02
2022-08-16T00:32:42.582Z,19.02
2022-08-16T00:34:18.250Z,19.02
2022-08-16T00:35:50.687Z,19.05
2022-08-16T00:37:56.177Z,19.06
2022-08-16T00:39:19.436Z,19.06
2022-08-16T00:40:54.328Z,19.04
2022-08-16T00:42:29.543Z,19.02
2022-08-16T00:44:11.005Z,18.99
2022-08-16T00:45:58.498Z,18.94
2022-08-16T00:47:33.012Z,18.94
2022-08-16T00:49:17.594Z,18.92
2022-08-16T00:50:55.469Z,18.89
2022-08-16T00:52:29.631Z,18.87
2022-08-16T00:54:03.079Z,18.86
2022-08-16T00:55:38.315Z,18.88
2022-08-16T00:57:11.543Z,18.86
2022-08-16T00:58:44.670Z,18.90
2022-08-16T01:00:19.937Z,18.87
2022-08-16T01:01:52.924Z,18.85
2022-08-16T01:03:29.464Z,18.86
2022-08-16T01:05:09.308Z,18.87
2022-08-16T01:07:01.404Z,18.85
2022-08-16T01:08:36.926Z,18.85
2022-08-16T01:10:16.027Z,18.83
2022-08-16T01:11:51.779Z,18.83
2022-08-16T01:13:30.939Z,18.83
2022-08-16T01:15:03.436Z,18.80
2022-08-16T01:16:36.101Z,18.81
2022-08-16T01:18:39.950Z,18.83
2022-08-16T01:20:24.447Z,18.80
2022-08-16T01:22:49.641Z,18.77
2022-08-16T01:24:53.678Z,18.76
2022-08-16T01:26:34.146Z,18.72
2022-08-16T01:28:19.945Z,18.71
2022-08-16T01:30:19.499Z,18.72
2022-08-16T01:31:52.800Z,18.68
2022-08-16T01:33:33.286Z,18.62
2022-08-16T01:35:09.423Z,18.60
2022-08-16T01:36:58.255Z,18.55
2022-08-16T01:38:32.044Z,18.55
2022-08-16T01:40:07.099Z,18.57
2022-08-16T01:41:42.321Z,18.55
2022-08-16T01:43:16.632Z,18.53
2022-08-16T01:44:48.728Z,18.55
2022-08-16T01:46:39.267Z,18.57
2022-08-16T01:48:20.438Z,18.56
2022-08-16T01:50:42.576Z,18.55
2022-08-16T01:51:47.562Z,18.56
2022-08-16T01:53:20.074Z,18.55
2022-08-16T01:54:53.476Z,18.55
2022-08-16T01:56:25.856Z,18.54
2022-08-16T01:57:58.835Z,18.52
2022-08-16T01:59:32.694Z,18.53
2022-08-16T02:01:04.902Z,18.51
2022-08-16T02:02:42.661Z,18.52
2022-08-16T02:04:14.920Z,18.52
2022-08-16T02:06:08.156Z,18.51
2022-08-16T02:07:40.061Z,18.51
2022-08-16T02:09:17.914Z,18.49
2022-08-16T02:10:50.232Z,18.51
2022-08-16T02:12:40.156Z,18.47
2022-08-16T02:14:18.056Z,18.45
2022-08-16T02:15:50.588Z,18.45
2022-08-16T02:17:24.793Z,18.48
2022-08-16T02:19:01.030Z,18.50
2022-08-16T02:20:35.156Z,18.51
2022-08-16T02:22:33.767Z,18.46
2022-08-16T02:24:00.159Z,18.43
2022-08-16T02:25:50.572Z,18.39
2022-08-16T02:27:24.830Z,18.35
2022-08-16T02:28:57.391Z,18.32
2022-08-16T02:30:37.172Z,18.31
2022-08-16T02:32:51.266Z,18.30
2022-08-16T02:34:10.151Z,18.25
2022-08-16T02:35:49.789Z,18.28
2022-08-16T02:37:52.123Z,18.33
2022-08-16T02:39:22.470Z,18.36
2022-08-16T02:40:57.305Z,18.35
2022-08-16T02:42:31.095Z,18.34
2022-08-16T02:44:04.156Z,18.34
2022-08-16T02:45:36.331Z,18.38
2022-08-16T02:47:08.372Z,18.41
2022-08-16T02:48:49.146Z,18.43
2022-08-16T02:50:53.830Z,18.39
2022-08-16T02:52:17.332Z,18.38
2022-08-16T02:53:57.137Z,18.36
2022-08-16T02:55:40.843Z,18.38
2022-08-16T02:57:13.660Z,18.39
2022-08-16T02:58:47.660Z,18.40
2022-08-16T03:00:33.677Z,18.39
2022-08-16T03:02:08.866Z,18.37
2022-08-16T03:04:48.839Z,18.37
2022-08-16T03:05:33.982Z,18.36
2022-08-16T03:07:06.668Z,18.34
2022-08-16T03:08:50.652Z,18.31
2022-08-16T03:10:23.799Z,18.29
2022-08-16T03:13:40.379Z,18.29
2022-08-16T03:15:13.893Z,18.30
2022-08-16T03:16:59.436Z,18.31
2022-08-16T03:18:34.444Z,18.29
2022-08-16T03:20:15.499Z,18.29
2022-08-16T03:21:51.828Z,18.28
2022-08-16T03:23:24.040Z,18.28
2022-08-16T03:25:00.802Z,18.29
2022-08-16T03:26:33.557Z,18.30
2022-08-16T03:28:09.768Z,18.31
2022-08-16T03:29:54.159Z,18.30
2022-08-16T03:31:34.858Z,18.29
2022-08-16T03:33:12.853Z,18.31
2022-08-16T03:34:49.988Z,18.33
2022-08-16T03:36:30.834Z,18.34
2022-08-16T03:38:33.444Z,18.40
2022-08-16T03:40:02.827Z,18.43
2022-08-16T03:41:50.686Z,18.51
2022-08-16T03:43:24.642Z,18.58
2022-08-16T03:45:16.933Z,18.65
2022-08-16T03:46:50.194Z,18.69
2022-08-16T03:48:36.887Z,18.73
2022-08-16T03:50:26.146Z,18.74
2022-08-16T03:51:59.029Z,18.73
2022-08-16T03:53:37.861Z,18.76
2022-08-16T03:55:14.659Z,18.79
2022-08-16T03:56:56.694Z,18.82
2022-08-16T03:58:30.439Z,18.86
2022-08-16T04:00:20.421Z,18.90
2022-08-16T04:02:12.133Z,18.94
2022-08-16T04:03:55.599Z,18.90
2022-08-16T04:05:28.028Z,18.96
2022-08-16T04:07:05.800Z,19.00
2022-08-16T04:08:39.659Z,19.02
2022-08-16T04:10:36.282Z,19.04
2022-08-16T04:12:10.813Z,19.06
2022-08-16T04:14:01.719Z,19.04
2022-08-16T04:15:35.179Z,19.06
2022-08-16T04:17:07.287Z,19.07
2022-08-16T04:18:39.496Z,19.11
2022-08-16T04:20:31.222Z,19.14
2022-08-16T04:22:08.580Z,19.16
2022-08-16T04:23:41.790Z,19.16
2022-08-16T04:25:14.196Z,19.21
2022-08-16T04:26:46.810Z,19.26
2022-08-16T04:28:51.729Z,19.31
2022-08-16T04:30:32.136Z,19.42
2022-08-16T04:32:08.136Z,19.47
2022-08-16T04:33:51.222Z,19.54
2022-08-16T04:35:24.328Z,19.56
2022-08-16T04:37:01.482Z,19.61
2022-08-16T04:38:34.705Z,19.59
2022-08-16T04:40:11.056Z,19.64
2022-08-16T04:41:56.814Z,19.71
2022-08-16T04:43:29.529Z,19.79
2022-08-16T04:45:01.758Z,19.83
2022-08-16T04:47:02.658Z,19.88
2022-08-16T04:48:34.025Z,19.95
2022-08-16T04:50:14.487Z,20.00
2022-08-16T04:51:53.958Z,20.01
2022-08-16T04:53:29.193Z,20.03
2022-08-16T04:55:01.597Z,20.06
2022-08-16T04:56:46.359Z,20.11
2022-08-16T04:58:44.976Z,20.16
2022-08-16T05:00:32.136Z,20.20
2022-08-16T05:02:41.477Z,20.24
2022-08-16T05:04:01.031Z,20.26
2022-08-16T05:05:36.824Z,20.30
2022-08-16T05:07:20.471Z,20.36
2022-08-16T05:08:53.027Z,20.39
2022-08-16T05:10:30.179Z,20.45
2022-08-16T05:12:02.356Z,20.50
2022-08-16T05:13:40.538Z,20.56
2022-08-16T05:15:13.449Z,20.56
2022-08-16T05:16:45.599Z,20.59
2022-08-16T05:18:21.983Z,20.63
2022-08-16T05:19:59.774Z,20.66
2022-08-16T05:21:38.327Z,20.71
2022-08-16T05:23:15.101Z,20.74
2022-08-16T05:24:47.751Z,20.76
2022-08-16T05:27:59.788Z,20.74
2022-08-16T05:30:00.718Z,20.80
2022-08-16T05:31:30.313Z,20.78
2022-08-16T05:33:02.756Z,20.75
2022-08-16T05:34:36.755Z,20.75
2022-08-16T05:36:14.515Z,20.72
2022-08-16T05:37:46.770Z,20.68
2022-08-16T05:41:02.474Z,20.79
2022-08-16T05:42:35.854Z,20.82
2022-08-16T05:44:22.385Z,20.83
2022-08-16T05:45:58.620Z,20.88
2022-08-16T05:47:31.497Z,20.87
2022-08-16T05:49:08.521Z,20.89
2022-08-16T05:50:41.745Z,20.90
2022-08-16T05:52:17.310Z,20.92
2022-08-16T05:53:53.169Z,20.95
2022-08-16T05:55:27.102Z,20.97
2022-08-16T05:57:02.290Z,21.02
2022-08-16T05:58:35.865Z,21.06
2022-08-16T06:00:11.071Z,21.12
2022-08-16T06:01:45.224Z,21.16
2022-08-16T06:03:17.607Z,21.19
2022-08-16T06:04:50.065Z,21.23
2022-08-16T06:06:29.049Z,21.29
2022-08-16T06:08:01.215Z,21.30
2022-08-16T06:09:37.171Z,21.30
2022-08-16T06:11:16.715Z,21.32
2022-08-16T06:12:55.871Z,21.34
2022-08-16T06:14:30.156Z,21.38
2022-08-16T06:16:07.364Z,21.42
2022-08-16T06:17:42.508Z,21.43
2022-08-16T06:19:16.123Z,21.48
2022-08-16T06:20:51.966Z,21.51
2022-08-16T06:22:57.846Z,21.54
2022-08-16T06:24:54.376Z,21.58
2022-08-16T06:26:12.955Z,21.66
2022-08-16T06:27:57.625Z,21.73
2022-08-16T06:29:30.666Z,21.78
2022-08-16T06:31:03.456Z,21.83
2022-08-16T06:32:42.990Z,21.91
2022-08-16T06:34:54.217Z,21.97
2022-08-16T06:36:09.505Z,22.09
2022-08-16T06:37:45.772Z,22.17
2022-08-16T06:39:23.910Z,22.27
2022-08-16T06:40:56.577Z,22.37
2022-08-16T06:42:47.150Z,22.49
2022-08-16T06:44:21.006Z,22.60
2022-08-16T06:45:54.581Z,22.69
2022-08-16T06:47:52.355Z,22.76
2022-08-16T06:49:19.650Z,22.86
2022-08-16T06:50:52.775Z,22.96
2022-08-16T06:52:59.642Z,23.06
2022-08-16T06:54:19.235Z,23.18
2022-08-16T06:55:53.859Z,23.28
2022-08-16T06:57:26.534Z,23.40
2022-08-16T06:58:59.494Z,23.52
2022-08-16T07:00:33.506Z,23.63
2022-08-16T07:02:06.097Z,23.74
2022-08-16T07:03:58.426Z,23.86
2022-08-16T07:05:41.642Z,23.95
2022-08-16T07:07:14.417Z,24.07
2022-08-16T07:08:48.179Z,24.13
2022-08-16T07:10:26.801Z,24.20
2022-08-16T07:12:03.457Z,24.31
2022-08-16T07:14:00.610Z,24.36
2022-08-16T07:15:30.731Z,24.45
2022-08-16T07:17:07.920Z,24.54
2022-08-16T07:19:00.877Z,24.67
2022-08-16T07:20:47.043Z,24.80
2022-08-16T07:22:37.156Z,24.92
2022-08-16T07:24:11.975Z,25.01
2022-08-16T07:26:02.353Z,25.13
2022-08-16T07:27:37.350Z,25.20
2022-08-16T07:29:09.959Z,25.29
2022-08-16T07:30:46.875Z,25.36
2022-08-16T07:32:29.664Z,25.48
2022-08-16T07:34:03.860Z,25.59
2022-08-16T07:35:44.265Z,25.71
2022-08-16T07:37:17.422Z,25.80
2022-08-16T07:38:50.266Z,25.87
2022-08-16T07:40:49.018Z,25.99
2022-08-16T07:42:26.108Z,26.07
2022-08-16T07:44:00.928Z,26.17
2022-08-16T07:45:34.059Z,26.28
2022-08-16T07:47:06.870Z,26.31
2022-08-16T07:48:38.997Z,26.39
2022-08-16T07:50:56.829Z,26.49
2022-08-16T07:52:18.630Z,26.56
2022-08-16T07:54:02.578Z,26.65
2022-08-16T07:55:47.562Z,26.76
2022-08-16T07:57:20.475Z,26.84
2022-08-16T07:58:57.910Z,26.92
2022-08-16T08:00:31.331Z,26.99
2022-08-16T08:02:04.875Z,27.02
2022-08-16T08:03:48.765Z,27.12
2022-08-16T08:05:25.345Z,27.21
2022-08-16T08:07:08.947Z,27.31
2022-08-16T08:08:50.168Z,27.35
2022-08-16T08:10:29.732Z,27.36
2022-08-16T08:12:05.557Z,27.41
2022-08-16T08:13:42.598Z,27.47
2022-08-16T08:15:15.732Z,27.54
2022-08-16T08:16:57.838Z,27.58
2022-08-16T08:18:33.839Z,27.61
2022-08-16T08:20:08.771Z,27.64
2022-08-16T08:22:00.190Z,27.74
2022-08-16T08:23:37.088Z,27.82
2022-08-16T08:25:16.299Z,27.90
2022-08-16T08:26:50.051Z,27.93
2022-08-16T08:28:22.909Z,27.96
2022-08-16T08:30:50.267Z,28.04
2022-08-16T08:31:52.922Z,28.13
2022-08-16T08:33:25.332Z,28.20
2022-08-16T08:35:03.875Z,28.30
2022-08-16T08:36:40.019Z,28.36
2022-08-16T08:38:12.688Z,28.44
2022-08-16T08:39:55.307Z,28.52
2022-08-16T08:41:30.587Z,28.60
2022-08-16T08:43:12.674Z,28.72
2022-08-16T08:44:50.681Z,28.79
2022-08-16T08:46:24.448Z,28.81
2022-08-16T08:47:58.552Z,28.85
2022-08-16T08:49:46.099Z,28.92
2022-08-16T08:51:23.812Z,28.93
2022-08-16T08:53:01.658Z,28.98
2022-08-16T08:54:35.010Z,29.03
2022-08-16T08:56:22.863Z,29.09
2022-08-16T08:57:57.644Z,29.14
2022-08-16T08:59:30.803Z,29.17
2022-08-16T09:01:05.523Z,29.23
2022-08-16T09:02:51.691Z,29.27
2022-08-16T09:04:25.165Z,29.31
2022-08-16T09:05:57.610Z,29.31
2022-08-16T09:07:29.888Z,29.34
2022-08-16T09:09:06.217Z,29.37
2022-08-16T09:10:39.510Z,29.41
2022-08-16T09:12:30.162Z,29.46
2022-08-16T09:14:06.185Z,29.52
2022-08-16T09:15:39.118Z,29.56
2022-08-16T09:17:31.604Z,29.61
2022-08-16T09:19:32.966Z,29.63
2022-08-16T09:21:09.565Z,29.63
2022-08-16T09:22:42.669Z,29.66
2022-08-16T09:24:46.941Z,29.65
2022-08-16T09:26:45.714Z,29.70
2022-08-16T09:28:08.917Z,29.73
2022-08-16T09:29:44.926Z,29.75
2022-08-16T09:31:19.417Z,29.79
2022-08-16T09:32:55.297Z,29.82
2022-08-16T09:34:28.008Z,29.85
2022-08-16T09:36:01.295Z,29.92
2022-08-16T09:37:36.475Z,30.00
2022-08-16T09:39:09.776Z,30.10
2022-08-16T09:40:49.047Z,30.14
2022-08-16T09:42:21.270Z,30.15
2022-08-16T09:44:00.251Z,30.19
2022-08-16T09:45:40.408Z,30.27
2022-08-16T09:47:16.194Z,30.32
2022-08-16T09:48:56.703Z,30.39
2022-08-16T09:50:36.755Z,30.45
2022-08-16T09:52:11.834Z,30.48
2022-08-16T09:53:44.483Z,30.49
2022-08-16T09:55:26.040Z,30.54
2022-08-16T09:57:04.218Z,30.60
2022-08-16T09:58:41.956Z,30.66
2022-08-16T10:00:44.145Z,30.64
2022-08-16T10:02:27.565Z,30.65
2022-08-16T10:04:02.112Z,30.61
2022-08-16T10:05:37.714Z,30.60
2022-08-16T10:07:14.715Z,30.58
2022-08-16T10:09:04.652Z,30.56
2022-08-16T10:10:41.797Z,30.49
2022-08-16T10:12:33.376Z,30.44
2022-08-16T10:14:06.116Z,30.43
2022-08-16T10:15:40.417Z,30.49
2022-08-16T10:17:14.652Z,30.54
2022-08-16T10:19:01.732Z,30.61
2022-08-16T10:20:46.270Z,30.66
2022-08-16T10:22:23.110Z,30.71
2022-08-16T10:23:56.244Z,30.73
2022-08-16T10:27:20.711Z,30.72
2022-08-16T10:27:29.788Z,30.78
2022-08-16T10:29:20.177Z,30.88
2022-08-16T10:30:56.346Z,30.93
2022-08-16T10:32:32.425Z,30.96
2022-08-16T10:34:05.301Z,30.98
2022-08-16T10:36:03.094Z,31.06
2022-08-16T10:37:36.664Z,31.13
2022-08-16T10:39:09.141Z,31.19
2022-08-16T10:40:45.516Z,31.21
2022-08-16T10:42:18.542Z,31.25
2022-08-16T10:43:53.198Z,31.29
2022-08-16T10:45:27.284Z,31.32
2022-08-16T10:46:59.707Z,31.37
2022-08-16T10:48:34.658Z,31.41
2022-08-16T10:50:18.993Z,31.52
2022-08-16T10:52:03.186Z,31.60
2022-08-16T10:53:51.495Z,31.66
2022-08-16T10:55:40.756Z,31.72
2022-08-16T10:57:17.013Z,31.74
2022-08-16T10:58:49.600Z,31.75
2022-08-16T11:00:22.707Z,31.79
2022-08-16T11:03:48.606Z,31.89
2022-08-16T11:05:27.239Z,31.93
2022-08-16T11:07:07.971Z,32.00
2022-08-16T11:08:44.957Z,32.01
2022-08-16T11:11:01.890Z,32.06
2022-08-16T11:12:14.766Z,32.09
2022-08-16T11:14:11.440Z,32.14
2022-08-16T11:15:47.933Z,32.18
2022-08-16T11:17:28.852Z,32.15
2022-08-16T11:19:13.115Z,32.00
2022-08-16T11:20:48.949Z,31.96
2022-08-16T11:22:38.719Z,31.87
2022-08-16T11:24:41.256Z,31.94
2022-08-16T11:26:22.800Z,31.96
2022-08-16T11:27:57.392Z,32.09
2022-08-16T11:29:30.040Z,32.13
2022-08-16T11:31:03.126Z,32.14
2022-08-16T11:32:36.880Z,32.16
2022-08-16T11:34:12.496Z,32.27
2022-08-16T11:36:22.508Z,32.29
2022-08-16T11:39:31.887Z,32.33
2022-08-16T11:41:07.428Z,32.33
2022-08-16T11:42:39.756Z,32.39
2022-08-16T11:44:13.600Z,32.45
2022-08-16T11:45:54.476Z,32.46
2022-08-16T11:47:29.056Z,32.43
2022-08-16T11:49:02.638Z,32.44
2022-08-16T11:50:36.001Z,32.49
2022-08-16T11:52:08.396Z,32.56
2022-08-16T11:53:41.116Z,32.69
2022-08-16T11:55:13.662Z,32.83
2022-08-16T11:56:52.971Z,32.99
2022-08-16T11:58:32.007Z,33.04
2022-08-16T12:00:43.531Z,33.05
2022-08-16T12:02:32.441Z,32.98
2022-08-16T12:04:01.155Z,32.72
2022-08-16T12:05:34.236Z,32.58
2022-08-16T12:07:29.665Z,32.44
2022-08-16T12:09:06.838Z,32.26
2022-08-16T12:10:47.296Z,32.15
2022-08-16T12:12:19.596Z,32.06
2022-08-16T12:13:53.992Z,31.98
2022-08-16T12:15:30.978Z,31.92
2022-08-16T12:17:05.326Z,31.88
2022-08-16T12:18:38.441Z,31.78
2022-08-16T12:20:18.910Z,31.77
2022-08-16T12:21:59.157Z,31.74
2022-08-16T12:23:32.077Z,31.82
2022-08-16T12:25:10.966Z,31.92
2022-08-16T12:26:43.516Z,31.96
2022-08-16T12:28:17.274Z,31.98
2022-08-16T12:30:21.370Z,32.04
2022-08-16T12:32:26.531Z,32.01
2022-08-16T12:33:54.372Z,31.99
2022-08-16T12:35:31.992Z,32.05
2022-08-16T12:37:11.499Z,32.13
2022-08-16T12:38:48.314Z,32.20
2022-08-16T12:40:25.347Z,32.29
2022-08-16T12:42:01.912Z,32.37
2022-08-16T12:43:34.467Z,32.47
2022-08-16T12:45:11.101Z,32.60
2022-08-16T12:46:43.651Z,32.70
2022-08-16T12:48:36.135Z,32.80
2022-08-16T12:50:10.532Z,32.89
2022-08-16T12:51:58.599Z,32.95
2022-08-16T12:53:35.177Z,33.02
2022-08-16T12:55:14.371Z,33.08
2022-08-16T12:56:47.219Z,33.15
2022-08-16T12:58:48.788Z,33.22
2022-08-16T13:00:26.546Z,33.29
2022-08-16T13:02:01.358Z,33.30
2022-08-16T13:03:40.065Z,33.31
2022-08-16T13:05:13.138Z,33.34
2022-08-16T13:06:45.870Z,33.38
2022-08-16T13:08:20.989Z,33.43
2022-08-16T13:09:58.632Z,33.47
2022-08-16T13:11:41.451Z,33.51
2022-08-16T13:13:27.285Z,33.53
2022-08-16T13:15:02.780Z,33.53
2022-08-16T13:16:35.644Z,33.52
2022-08-16T13:18:24.227Z,33.42
2022-08-16T13:20:11.193Z,33.31
2022-08-16T13:21:43.779Z,33.03
2022-08-16T13:23:17.031Z,32.84
2022-08-16T13:24:51.310Z,32.78
2022-08-16T13:26:26.394Z,32.72
2022-08-16T13:28:15.035Z,32.61
2022-08-16T13:29:57.432Z,32.49
2022-08-16T13:31:30.502Z,32.41
2022-08-16T13:33:11.348Z,32.34
2022-08-16T13:34:46.417Z,32.22
2022-08-16T13:36:38.939Z,32.14
2022-08-16T13:38:21.604Z,32.05
2022-08-16T13:39:57.750Z,32.03
2022-08-16T13:41:32.184Z,31.98
2022-08-16T13:43:05.021Z,31.95
2022-08-16T13:44:48.746Z,31.88
2022-08-16T13:46:30.598Z,31.87
2022-08-16T13:48:06.028Z,31.85
2022-08-16T13:49:38.504Z,31.83
2022-08-16T13:51:16.852Z,31.81
2022-08-16T13:52:50.026Z,31.74
2022-08-16T13:54:22.407Z,31.70
2022-08-16T13:55:58.568Z,31.61
2022-08-16T13:58:35.518Z,31.54
2022-08-16T13:59:24.197Z,31.45
2022-08-16T14:01:03.751Z,31.34
2022-08-16T14:02:42.875Z,31.22
2022-08-16T14:04:19.053Z,31.09
2022-08-16T14:05:59.098Z,31.00
2022-08-16T14:07:32.237Z,30.91
2022-08-16T14:09:07.498Z,30.81
2022-08-16T14:10:40.018Z,30.77
2022-08-16T14:12:25.260Z,30.76
2022-08-16T14:13:59.600Z,30.76
2022-08-16T14:15:32.327Z,30.75
2022-08-16T14:17:09.686Z,30.77
2022-08-16T14:18:42.486Z,30.77
2022-08-16T14:20:19.431Z,30.78
2022-08-16T14:22:14.862Z,30.77
2022-08-16T14:23:48.065Z,30.70
2022-08-16T14:25:22.085Z,30.66
2022-08-16T14:26:55.102Z,30.61
2022-08-16T14:28:29.225Z,30.63
2022-08-16T14:30:02.636Z,30.65
2022-08-16T14:31:39.331Z,30.70
2022-08-16T14:33:12.390Z,30.76
2022-08-16T14:34:45.038Z,30.75
2022-08-16T14:36:18.820Z,30.79
2022-08-16T14:38:02.177Z,30.86
2022-08-16T14:39:35.844Z,30.94
2022-08-16T14:41:11.955Z,31.03
2022-08-16T14:42:45.232Z,31.04
2022-08-16T14:44:20.682Z,31.06
2022-08-16T14:45:54.820Z,31.08
2022-08-16T14:47:34.228Z,30.86
2022-08-16T14:49:09.262Z,30.43
2022-08-16T14:50:41.363Z,29.94
2022-08-16T14:52:44.334Z,29.37
2022-08-16T14:54:11.228Z,28.66
2022-08-16T14:55:43.713Z,28.15
2022-08-16T14:57:16.299Z,27.75
2022-08-16T14:58:48.704Z,27.50
2022-08-16T15:00:21.776Z,27.20
2022-08-16T15:02:11.904Z,26.92
2022-08-16T15:04:00.845Z,26.78
2022-08-16T15:05:33.570Z,26.67
2022-08-16T15:07:09.336Z,26.55
2022-08-16T15:08:45.818Z,26.59
2022-08-16T15:10:24.090Z,26.62
2022-08-16T15:11:57.086Z,26.59
2022-08-16T15:13:29.778Z,26.39
2022-08-16T15:16:50.070Z,26.38
2022-08-16T15:18:23.408Z,26.36
2022-08-16T15:20:01.326Z,26.17
2022-08-16T15:21:33.798Z,26.18
2022-08-16T15:23:08.843Z,26.16
2022-08-16T15:24:45.314Z,26.12
2022-08-16T15:26:29.599Z,26.11
2022-08-16T15:28:30.946Z,26.17
2022-08-16T15:30:44.709Z,26.28
2022-08-16T15:32:01.119Z,26.30
2022-08-16T15:33:42.724Z,26.34
2022-08-16T15:35:18.548Z,26.37
2022-08-16T15:36:50.776Z,26.59
2022-08-16T15:38:54.866Z,26.79
2022-08-16T15:40:32.081Z,26.99
2022-08-16T15:42:11.205Z,27.15
2022-08-16T15:43:44.023Z,27.31
2022-08-16T15:45:36.331Z,27.53
2022-08-16T15:47:15.102Z,27.59
2022-08-16T15:48:47.961Z,27.69
2022-08-16T15:50:24.123Z,27.65
2022-08-16T15:51:56.577Z,27.75
2022-08-16T15:53:31.369Z,27.78
2022-08-16T15:55:23.636Z,27.80
2022-08-16T15:56:56.775Z,27.82
2022-08-16T15:58:35.021Z,27.89
2022-08-16T16:00:15.280Z,27.92
2022-08-16T16:01:48.237Z,27.99
2022-08-16T16:03:25.611Z,28.07
2022-08-16T16:05:02.285Z,28.12
2022-08-16T16:06:37.626Z,28.15
2022-08-16T16:08:15.089Z,28.22
2022-08-16T16:09:56.699Z,28.30
2022-08-16T16:11:31.331Z,28.35
2022-08-16T16:13:05.902Z,28.41
2022-08-16T16:14:41.420Z,28.43
2022-08-16T16:16:19.424Z,28.44
2022-08-16T16:17:54.036Z,28.49
2022-08-16T16:19:27.177Z,28.52
2022-08-16T16:21:09.352Z,28.56
2022-08-16T16:22:43.808Z,28.56
2022-08-16T16:24:16.910Z,28.55
2022-08-16T16:25:57.328Z,28.41
2022-08-16T16:27:30.081Z,28.27
2022-08-16T16:29:07.369Z,28.09
2022-08-16T16:30:45.381Z,27.92
2022-08-16T16:32:18.305Z,27.76
2022-08-16T16:34:08.263Z,27.62
2022-08-16T16:35:46.954Z,27.50
2022-08-16T16:37:20.323Z,27.39
2022-08-16T16:38:52.785Z,27.29
2022-08-16T16:40:32.829Z,27.20
2022-08-16T16:42:06.215Z,27.12
2022-08-16T16:43:46.876Z,27.03
2022-08-16T16:45:22.931Z,26.92
2022-08-16T16:46:58.215Z,26.82
2022-08-16T16:48:34.728Z,26.75
2022-08-16T16:50:09.589Z,26.69
2022-08-16T16:51:44.886Z,26.62
2022-08-16T16:53:23.165Z,26.57
2022-08-16T16:54:56.217Z,26.50
2022-08-16T16:56:37.410Z,26.45
2022-08-16T16:58:35.411Z,26.37
2022-08-16T17:00:30.089Z,26.28
2022-08-16T17:02:41.656Z,26.18
2022-08-16T17:03:56.881Z,26.11
2022-08-16T17:05:32.710Z,26.03
2022-08-16T17:07:10.537Z,25.97
2022-08-16T17:08:44.064Z,25.89
2022-08-16T17:10:46.737Z,25.83
2022-08-16T17:12:24.410Z,25.74
2022-08-16T17:13:57.934Z,25.67
2022-08-16T17:15:36.411Z,25.60
2022-08-16T17:17:09.567Z,25.55
2022-08-16T17:19:16.453Z,25.50
2022-08-16T17:20:33.973Z,25.44
2022-08-16T17:22:14.872Z,25.38
2022-08-16T17:23:59.167Z,25.33
2022-08-16T17:25:36.431Z,25.27
2022-08-16T17:27:09.446Z,25.21
2022-08-16T17:28:58.629Z,25.16
2022-08-16T17:30:45.181Z,25.10
2022-08-16T17:32:33.550Z,25.02
2022-08-16T17:34:28.859Z,25.01
2022-08-16T17:36:04.000Z,24.97
2022-08-16T17:37:50.608Z,24.93
2022-08-16T17:39:23.948Z,24.85
2022-08-16T17:40:59.439Z,24.80
2022-08-16T17:42:32.075Z,24.73
2022-08-16T17:44:06.071Z,24.68
2022-08-16T17:45:41.750Z,24.63
2022-08-16T17:47:14.152Z,24.54
2022-08-16T17:48:46.234Z,24.50
2022-08-16T17:50:19.757Z,24.49
2022-08-16T17:51:52.954Z,24.44
2022-08-16T17:53:26.293Z,24.38
2022-08-16T17:54:58.616Z,24.28
2022-08-16T17:56:31.091Z,24.23
2022-08-16T17:58:22.722Z,24.18
2022-08-16T17:59:56.321Z,24.09
2022-08-16T18:01:29.362Z,24.03
2022-08-16T18:03:02.873Z,24.02
2022-08-16T18:04:48.609Z,23.99
2022-08-16T18:06:22.837Z,23.96
2022-08-16T18:07:55.655Z,23.93
2022-08-16T18:09:28.290Z,23.93
2022-08-16T18:11:03.106Z,23.90
2022-08-16T18:12:50.797Z,23.87
2022-08-16T18:14:51.969Z,23.84
2022-08-16T18:16:21.406Z,23.79
2022-08-16T18:17:53.982Z,23.63
2022-08-16T18:19:26.493Z,23.60
2022-08-16T18:21:17.308Z,23.58
2022-08-16T18:22:50.073Z,23.51
2022-08-16T18:24:22.587Z,23.49
2022-08-16T18:25:57.708Z,23.49
2022-08-16T18:27:33.148Z,23.46
2022-08-16T18:29:09.811Z,23.44
2022-08-16T18:30:43.192Z,23.42
2022-08-16T18:32:22.003Z,23.41
2022-08-16T18:33:57.547Z,23.38
2022-08-16T18:35:30.005Z,23.36
2022-08-16T18:37:02.487Z,23.36
2022-08-16T18:38:37.695Z,23.36
2022-08-16T18:40:11.346Z,23.35
2022-08-16T18:41:47.509Z,23.32
2022-08-16T18:43:21.758Z,23.35
2022-08-16T18:45:15.287Z,23.29
2022-08-16T18:46:51.074Z,23.25
2022-08-16T18:48:27.841Z,23.21
2022-08-16T18:50:00.971Z,23.18
2022-08-16T18:51:33.839Z,23.14
2022-08-16T18:53:08.879Z,23.12
2022-08-16T18:55:02.851Z,23.10
2022-08-16T18:56:56.051Z,23.08
2022-08-16T18:58:31.122Z,23.06
2022-08-16T19:00:04.162Z,23.02
2022-08-16T19:01:36.635Z,22.99
2022-08-16T19:03:13.198Z,22.99
2022-08-16T19:04:56.650Z,22.98
2022-08-16T19:06:30.721Z,22.96
2022-08-16T19:08:05.198Z,22.95
2022-08-16T19:09:38.565Z,22.90
2022-08-16T19:11:14.325Z,22.93
2022-08-16T19:12:47.317Z,22.92
2022-08-16T19:14:20.001Z,22.92
2022-08-16T19:15:57.841Z,22.94
2022-08-16T19:17:30.559Z,22.90
2022-08-16T19:19:02.959Z,22.90
2022-08-16T19:20:36.079Z,22.90
2022-08-16T19:22:08.879Z,22.90
2022-08-16T19:23:43.524Z,22.88
2022-08-16T19:25:21.282Z,22.85
2022-08-16T19:27:14.560Z,22.79
2022-08-16T19:28:58.815Z,22.76
2022-08-16T19:30:32.313Z,22.70
2022-08-16T19:32:05.202Z,22.70
2022-08-16T19:33:37.839Z,22.66
2022-08-16T19:35:11.198Z,22.62
2022-08-16T19:36:43.681Z,22.63
2022-08-16T19:38:17.281Z,22.59
2022-08-16T19:39:49.924Z,22.57
2022-08-16T19:41:22.507Z,22.53
2022-08-16T19:42:54.962Z,22.53
2022-08-16T19:44:28.963Z,22.52
2022-08-16T19:46:01.524Z,22.53
2022-08-16T19:47:34.243Z,22.53
2022-08-16T19:49:07.030Z,22.52
2022-08-16T19:50:39.442Z,22.47
2022-08-16T19:52:15.041Z,22.44
2022-08-16T19:53:47.447Z,22.40
2022-08-16T19:55:22.589Z,22.42
2022-08-16T19:56:57.842Z,22.40
2022-08-16T19:58:31.359Z,22.38
2022-08-16T20:00:12.642Z,22.39
2022-08-16T20:01:46.801Z,22.37
2022-08-16T20:03:21.310Z,22.38
2022-08-16T20:04:54.718Z,22.34
2022-08-16T20:06:38.441Z,22.32
2022-08-16T20:08:11.922Z,22.34
2022-08-16T20:09:44.558Z,22.35
2022-08-16T20:11:17.407Z,22.35
2022-08-16T20:12:59.785Z,22.37
2022-08-16T20:14:34.564Z,22.37
2022-08-16T20:16:06.963Z,22.31
2022-08-16T20:17:39.236Z,22.23
2022-08-16T20:19:11.491Z,22.21
2022-08-16T20:20:44.072Z,22.17
2022-08-16T20:22:52.550Z,22.16
2022-08-16T20:24:34.262Z,22.13
2022-08-16T20:26:08.081Z,22.10
2022-08-16T20:27:44.561Z,22.07
2022-08-16T20:29:16.641Z,22.05
2022-08-16T20:30:48.726Z,22.06
2022-08-16T20:32:25.786Z,22.06
2022-08-16T20:34:08.479Z,22.00
2022-08-16T20:35:43.118Z,22.02
2022-08-16T20:37:16.961Z,22.01
2022-08-16T20:38:50.559Z,21.99
2022-08-16T20:40:35.353Z,21.96
2022-08-16T20:42:08.203Z,21.90
2022-08-16T20:43:40.402Z,21.85
2022-08-16T20:45:12.676Z,21.82
2022-08-16T20:46:44.801Z,21.77
2022-08-16T20:48:16.964Z,21.72
2022-08-16T20:49:50.164Z,21.71
2022-08-16T20:51:22.489Z,21.70
2022-08-16T20:52:54.809Z,21.66
2022-08-16T20:54:29.596Z,21.66
2022-08-16T20:56:03.163Z,21.61
2022-08-16T20:57:38.342Z,21.62
2022-08-16T20:59:10.458Z,21.61
2022-08-16T21:00:42.954Z,21.58
2022-08-16T21:02:18.847Z,21.59
2022-08-16T21:03:51.578Z,21.58
2022-08-16T21:05:27.885Z,21.58
2022-08-16T21:07:08.431Z,21.58
2022-08-16T21:08:53.478Z,21.59
2022-08-16T21:10:27.787Z,21.62
2022-08-16T21:12:10.269Z,21.61
2022-08-16T21:13:47.099Z,21.59
2022-08-16T21:15:21.550Z,21.59
2022-08-16T21:16:58.636Z,21.59